sensor_id;sensor_type;location;lat;lon;timestamp;temperature;humidity
26990;DHT22;14537;47.788;11.858;2023-05-07T00:01:53;9.90;99.90
26990;DHT22;14537;47.788;11.858;2023-05-07T00:04:18;9.80;99.90
26990;DHT22;14537;47.788;11.858;2023-05-07T00:06:44;9.80;99.90
26990;DHT22;14537;47.788;11.858;2023-05-07T00:09:10;9.80;99.90
26990;DHT22;14537;47.788;11.858;2023-05-07T00:11:36;9.80;99.90
26990;DHT22;14537;47.788;11.858;2023-05-07T00:14:01;9.80;99.90
26990;DHT22;14537;47.788;11.858;2023-05-07T00:16:27;9.80;99.90
26990;DHT22;14537;47.788;11.858;2023-05-07T00:18:53;9.80;99.90
26990;DHT22;14537;47.788;11.858;2023-05-07T00:21:19;9.80;99.90
26990;DHT22;14537;47.788;11.858;2023-05-07T00:23:44;9.80;99.90
26990;DHT22;14537;47.788;11.858;2023-05-07T00:26:10;9.80;99.90
26990;DHT22;14537;47.788;11.858;2023-05-07T00:28:35;9.70;99.90
26990;DHT22;14537;47.788;11.858;2023-05-07T00:31:01;9.80;99.90
26990;DHT22;14537;47.788;11.858;2023-05-07T00:33:27;9.70;99.90
26990;DHT22;14537;47.788;11.858;2023-05-07T00:35:52;9.70;99.90
26990;DHT22;14537;47.788;11.858;2023-05-07T00:38:19;9.70;99.90
26990;DHT22;14537;47.788;11.858;2023-05-07T00:40:45;9.80;99.90
26990;DHT22;14537;47.788;11.858;2023-05-07T00:43:11;9.70;99.90
26990;DHT22;14537;47.788;11.858;2023-05-07T00:45:38;9.80;99.90
26990;DHT22;14537;47.788;11.858;2023-05-07T00:48:04;9.70;99.90
26990;DHT22;14537;47.788;11.858;2023-05-07T00:50:30;9.60;99.90
26990;DHT22;14537;47.788;11.858;2023-05-07T00:52:56;9.60;99.90
26990;DHT22;14537;47.788;11.858;2023-05-07T00:55:23;9.60;99.90
26990;DHT22;14537;47.788;11.858;2023-05-07T00:57:49;9.70;99.90
26990;DHT22;14537;47.788;11.858;2023-05-07T01:00:16;9.70;99.90
26990;DHT22;14537;47.788;11.858;2023-05-07T01:02:42;9.70;99.90
26990;DHT22;14537;47.788;11.858;2023-05-07T01:05:14;9.60;99.90
26990;DHT22;14537;47.788;11.858;2023-05-07T01:07:42;9.60;99.90
26990;DHT22;14537;47.788;11.858;2023-05-07T01:10:08;9.60;99.90
26990;DHT22;14537;47.788;11.858;2023-05-07T01:12:36;9.60;99.90
26990;DHT22;14537;47.788;11.858;2023-05-07T01:15:03;9.70;99.90
26990;DHT22;14537;47.788;11.858;2023-05-07T01:17:29;9.60;99.90
26990;DHT22;14537;47.788;11.858;2023-05-07T01:19:58;9.60;99.90
26990;DHT22;14537;47.788;11.858;2023-05-07T01:22:34;9.60;99.90
26990;DHT22;14537;47.788;11.858;2023-05-07T01:25:02;9.60;99.90
26990;DHT22;14537;47.788;11.858;2023-05-07T01:27:28;9.60;99.90
26990;DHT22;14537;47.788;11.858;2023-05-07T01:29:54;9.60;99.90
26990;DHT22;14537;47.788;11.858;2023-05-07T01:32:48;9.60;99.90
26990;DHT22;14537;47.788;11.858;2023-05-07T01:35:13;9.60;99.90
26990;DHT22;14537;47.788;11.858;2023-05-07T01:37:41;9.60;99.90
26990;DHT22;14537;47.788;11.858;2023-05-07T01:40:07;9.60;99.90
26990;DHT22;14537;47.788;11.858;2023-05-07T01:42:33;9.60;99.90
26990;DHT22;14537;47.788;11.858;2023-05-07T01:44:59;9.60;99.90
26990;DHT22;14537;47.788;11.858;2023-05-07T01:47:25;9.60;99.90
26990;DHT22;14537;47.788;11.858;2023-05-07T01:49:52;9.50;99.90
26990;DHT22;14537;47.788;11.858;2023-05-07T01:52:17;9.60;99.90
26990;DHT22;14537;47.788;11.858;2023-05-07T01:54:43;9.60;99.90
26990;DHT22;14537;47.788;11.858;2023-05-07T01:57:08;9.60;99.90
26990;DHT22;14537;47.788;11.858;2023-05-07T01:59:34;9.60;99.90
26990;DHT22;14537;47.788;11.858;2023-05-07T02:02:00;9.60;99.90
26990;DHT22;14537;47.788;11.858;2023-05-07T02:04:26;9.60;99.90
26990;DHT22;14537;47.788;11.858;2023-05-07T02:06:51;9.60;99.90
26990;DHT22;14537;47.788;11.858;2023-05-07T02:09:18;9.50;99.90
26990;DHT22;14537;47.788;11.858;2023-05-07T02:11:44;9.50;99.90
26990;DHT22;14537;47.788;11.858;2023-05-07T02:14:09;9.50;99.90
26990;DHT22;14537;47.788;11.858;2023-05-07T02:16:35;9.50;99.90
26990;DHT22;14537;47.788;11.858;2023-05-07T02:19:01;9.50;99.90
26990;DHT22;14537;47.788;11.858;2023-05-07T02:21:26;9.50;99.90
26990;DHT22;14537;47.788;11.858;2023-05-07T02:23:52;9.50;99.90
26990;DHT22;14537;47.788;11.858;2023-05-07T02:26:18;9.50;99.90
26990;DHT22;14537;47.788;11.858;2023-05-07T02:28:43;9.60;99.90
26990;DHT22;14537;47.788;11.858;2023-05-07T02:31:09;9.60;99.90
26990;DHT22;14537;47.788;11.858;2023-05-07T02:33:35;9.60;99.90
26990;DHT22;14537;47.788;11.858;2023-05-07T02:36:09;9.70;99.90
26990;DHT22;14537;47.788;11.858;2023-05-07T02:38:35;9.60;99.90
26990;DHT22;14537;47.788;11.858;2023-05-07T02:41:00;9.50;99.90
26990;DHT22;14537;47.788;11.858;2023-05-07T02:43:26;9.40;99.90
26990;DHT22;14537;47.788;11.858;2023-05-07T02:48:28;9.30;99.90
26990;DHT22;14537;47.788;11.858;2023-05-07T02:50:53;9.30;99.90
26990;DHT22;14537;47.788;11.858;2023-05-07T02:53:19;9.40;99.90
26990;DHT22;14537;47.788;11.858;2023-05-07T02:55:45;9.40;99.90
26990;DHT22;14537;47.788;11.858;2023-05-07T02:58:10;9.50;99.90
26990;DHT22;14537;47.788;11.858;2023-05-07T03:00:36;9.50;99.90
26990;DHT22;14537;47.788;11.858;2023-05-07T03:03:02;9.40;99.90
26990;DHT22;14537;47.788;11.858;2023-05-07T03:05:27;9.40;99.90
26990;DHT22;14537;47.788;11.858;2023-05-07T03:07:53;9.30;99.90
26990;DHT22;14537;47.788;11.858;2023-05-07T03:10:18;9.30;99.90
26990;DHT22;14537;47.788;11.858;2023-05-07T03:12:44;9.30;99.90
26990;DHT22;14537;47.788;11.858;2023-05-07T03:15:10;9.30;99.90
26990;DHT22;14537;47.788;11.858;2023-05-07T03:17:38;9.30;99.90
26990;DHT22;14537;47.788;11.858;2023-05-07T03:20:04;9.20;99.90
26990;DHT22;14537;47.788;11.858;2023-05-07T03:22:30;9.20;99.90
26990;DHT22;14537;47.788;11.858;2023-05-07T03:24:55;9.30;99.90
26990;DHT22;14537;47.788;11.858;2023-05-07T03:27:21;9.30;99.90
26990;DHT22;14537;47.788;11.858;2023-05-07T03:29:47;9.20;99.90
26990;DHT22;14537;47.788;11.858;2023-05-07T03:32:13;9.30;99.90
26990;DHT22;14537;47.788;11.858;2023-05-07T03:34:38;9.10;99.90
26990;DHT22;14537;47.788;11.858;2023-05-07T03:37:04;9.10;99.90
26990;DHT22;14537;47.788;11.858;2023-05-07T03:39:30;9.10;99.90
26990;DHT22;14537;47.788;11.858;2023-05-07T03:41:56;9.10;99.90
26990;DHT22;14537;47.788;11.858;2023-05-07T03:44:22;9.10;99.90
26990;DHT22;14537;47.788;11.858;2023-05-07T03:46:47;9.10;99.90
26990;DHT22;14537;47.788;11.858;2023-05-07T03:49:13;9.10;99.90
26990;DHT22;14537;47.788;11.858;2023-05-07T03:51:38;9.10;99.90
26990;DHT22;14537;47.788;11.858;2023-05-07T03:54:04;9.10;99.90
26990;DHT22;14537;47.788;11.858;2023-05-07T03:56:30;9.10;99.90
26990;DHT22;14537;47.788;11.858;2023-05-07T03:58:56;9.10;99.90
26990;DHT22;14537;47.788;11.858;2023-05-07T04:01:22;9.10;99.90
26990;DHT22;14537;47.788;11.858;2023-05-07T04:03:47;9.10;99.90
26990;DHT22;14537;47.788;11.858;2023-05-07T04:06:13;9.00;99.90
26990;DHT22;14537;47.788;11.858;2023-05-07T04:08:38;9.10;99.90
26990;DHT22;14537;47.788;11.858;2023-05-07T04:11:06;8.90;99.90
26990;DHT22;14537;47.788;11.858;2023-05-07T04:13:32;8.90;99.90
26990;DHT22;14537;47.788;11.858;2023-05-07T04:15:57;8.90;99.90
26990;DHT22;14537;47.788;11.858;2023-05-07T04:18:23;8.80;99.90
26990;DHT22;14537;47.788;11.858;2023-05-07T04:20:49;8.70;99.90
26990;DHT22;14537;47.788;11.858;2023-05-07T04:23:15;8.70;99.90
26990;DHT22;14537;47.788;11.858;2023-05-07T04:25:41;8.70;99.90
26990;DHT22;14537;47.788;11.858;2023-05-07T04:28:07;8.80;99.90
26990;DHT22;14537;47.788;11.858;2023-05-07T04:30:32;8.80;99.90
26990;DHT22;14537;47.788;11.858;2023-05-07T04:32:58;8.90;99.90
26990;DHT22;14537;47.788;11.858;2023-05-07T04:35:23;8.90;99.90
26990;DHT22;14537;47.788;11.858;2023-05-07T04:37:49;9.10;99.90
26990;DHT22;14537;47.788;11.858;2023-05-07T04:40:15;9.10;99.90
26990;DHT22;14537;47.788;11.858;2023-05-07T04:42:41;9.10;99.90
26990;DHT22;14537;47.788;11.858;2023-05-07T04:45:07;9.10;99.90
26990;DHT22;14537;47.788;11.858;2023-05-07T04:47:34;9.10;99.90
26990;DHT22;14537;47.788;11.858;2023-05-07T04:49:59;9.10;99.90
26990;DHT22;14537;47.788;11.858;2023-05-07T04:52:25;9.10;99.90
26990;DHT22;14537;47.788;11.858;2023-05-07T04:54:51;9.10;99.90
26990;DHT22;14537;47.788;11.858;2023-05-07T04:57:16;9.20;99.90
26990;DHT22;14537;47.788;11.858;2023-05-07T04:59:43;9.20;99.90
26990;DHT22;14537;47.788;11.858;2023-05-07T05:02:10;9.30;99.90
26990;DHT22;14537;47.788;11.858;2023-05-07T05:04:36;9.40;99.90
26990;DHT22;14537;47.788;11.858;2023-05-07T05:07:02;9.50;99.90
26990;DHT22;14537;47.788;11.858;2023-05-07T05:09:31;9.50;99.90
26990;DHT22;14537;47.788;11.858;2023-05-07T05:11:57;9.50;99.90
26990;DHT22;14537;47.788;11.858;2023-05-07T05:14:22;9.60;99.90
26990;DHT22;14537;47.788;11.858;2023-05-07T05:16:48;9.60;99.90
26990;DHT22;14537;47.788;11.858;2023-05-07T05:19:13;9.70;99.90
26990;DHT22;14537;47.788;11.858;2023-05-07T05:21:39;9.80;99.90
26990;DHT22;14537;47.788;11.858;2023-05-07T05:24:05;9.80;99.90
26990;DHT22;14537;47.788;11.858;2023-05-07T05:26:30;9.90;99.90
26990;DHT22;14537;47.788;11.858;2023-05-07T05:28:56;10.00;99.90
26990;DHT22;14537;47.788;11.858;2023-05-07T05:31:22;10.00;99.90
26990;DHT22;14537;47.788;11.858;2023-05-07T05:33:47;10.10;99.90
26990;DHT22;14537;47.788;11.858;2023-05-07T05:36:13;10.10;99.90
26990;DHT22;14537;47.788;11.858;2023-05-07T05:38:39;10.10;99.90
26990;DHT22;14537;47.788;11.858;2023-05-07T05:41:05;10.30;99.90
26990;DHT22;14537;47.788;11.858;2023-05-07T05:43:31;10.30;99.90
26990;DHT22;14537;47.788;11.858;2023-05-07T05:45:56;10.40;99.90
26990;DHT22;14537;47.788;11.858;2023-05-07T05:48:23;10.40;99.90
26990;DHT22;14537;47.788;11.858;2023-05-07T05:50:48;10.50;99.90
26990;DHT22;14537;47.788;11.858;2023-05-07T05:53:14;10.50;99.90
26990;DHT22;14537;47.788;11.858;2023-05-07T05:55:39;10.60;99.90
26990;DHT22;14537;47.788;11.858;2023-05-07T05:58:05;10.70;99.90
26990;DHT22;14537;47.788;11.858;2023-05-07T06:00:31;10.80;99.90
26990;DHT22;14537;47.788;11.858;2023-05-07T06:02:57;10.90;99.90
26990;DHT22;14537;47.788;11.858;2023-05-07T06:05:22;11.00;99.90
26990;DHT22;14537;47.788;11.858;2023-05-07T06:07:48;11.00;99.90
26990;DHT22;14537;47.788;11.858;2023-05-07T06:10:13;11.00;99.90
26990;DHT22;14537;47.788;11.858;2023-05-07T06:12:39;11.10;99.90
26990;DHT22;14537;47.788;11.858;2023-05-07T06:15:05;11.20;99.90
26990;DHT22;14537;47.788;11.858;2023-05-07T06:17:31;11.20;99.90
26990;DHT22;14537;47.788;11.858;2023-05-07T06:19:57;11.30;99.90
26990;DHT22;14537;47.788;11.858;2023-05-07T06:22:23;11.30;99.90
26990;DHT22;14537;47.788;11.858;2023-05-07T06:24:48;11.40;99.90
26990;DHT22;14537;47.788;11.858;2023-05-07T06:27:14;11.50;99.90
26990;DHT22;14537;47.788;11.858;2023-05-07T06:29:39;11.60;99.90
26990;DHT22;14537;47.788;11.858;2023-05-07T06:32:12;11.80;99.90
26990;DHT22;14537;47.788;11.858;2023-05-07T06:34:39;12.10;99.90
26990;DHT22;14537;47.788;11.858;2023-05-07T06:37:05;12.20;99.90
26990;DHT22;14537;47.788;11.858;2023-05-07T06:39:31;12.30;99.90
26990;DHT22;14537;47.788;11.858;2023-05-07T06:41:57;12.30;99.90
26990;DHT22;14537;47.788;11.858;2023-05-07T06:44:22;12.40;99.90
26990;DHT22;14537;47.788;11.858;2023-05-07T06:46:48;12.40;99.90
26990;DHT22;14537;47.788;11.858;2023-05-07T06:49:14;12.50;99.90
26990;DHT22;14537;47.788;11.858;2023-05-07T06:51:40;12.50;99.90
26990;DHT22;14537;47.788;11.858;2023-05-07T06:54:06;12.60;99.90
26990;DHT22;14537;47.788;11.858;2023-05-07T06:56:32;12.70;99.90
26990;DHT22;14537;47.788;11.858;2023-05-07T06:59:02;12.80;99.90
26990;DHT22;14537;47.788;11.858;2023-05-07T07:01:28;12.90;99.90
26990;DHT22;14537;47.788;11.858;2023-05-07T07:03:54;13.00;99.90
26990;DHT22;14537;47.788;11.858;2023-05-07T07:06:20;13.10;99.90
26990;DHT22;14537;47.788;11.858;2023-05-07T07:08:45;13.20;99.90
26990;DHT22;14537;47.788;11.858;2023-05-07T07:11:11;13.30;99.90
26990;DHT22;14537;47.788;11.858;2023-05-07T07:13:37;13.40;99.90
26990;DHT22;14537;47.788;11.858;2023-05-07T07:16:02;13.50;99.90
26990;DHT22;14537;47.788;11.858;2023-05-07T07:18:28;13.50;99.90
26990;DHT22;14537;47.788;11.858;2023-05-07T07:20:54;13.60;99.90
26990;DHT22;14537;47.788;11.858;2023-05-07T07:23:20;13.70;99.90
26990;DHT22;14537;47.788;11.858;2023-05-07T07:25:46;13.70;99.90
26990;DHT22;14537;47.788;11.858;2023-05-07T07:28:12;13.80;99.90
26990;DHT22;14537;47.788;11.858;2023-05-07T07:30:37;13.90;99.90
26990;DHT22;14537;47.788;11.858;2023-05-07T07:33:03;13.90;99.90
26990;DHT22;14537;47.788;11.858;2023-05-07T07:35:31;13.90;99.90
26990;DHT22;14537;47.788;11.858;2023-05-07T07:37:57;14.00;99.90
26990;DHT22;14537;47.788;11.858;2023-05-07T07:40:23;14.10;99.90
26990;DHT22;14537;47.788;11.858;2023-05-07T07:42:48;14.20;99.90
26990;DHT22;14537;47.788;11.858;2023-05-07T07:45:14;14.30;99.90
26990;DHT22;14537;47.788;11.858;2023-05-07T07:47:40;14.40;99.90
26990;DHT22;14537;47.788;11.858;2023-05-07T07:50:06;14.50;99.90
26990;DHT22;14537;47.788;11.858;2023-05-07T07:52:32;14.60;99.90
26990;DHT22;14537;47.788;11.858;2023-05-07T07:54:58;14.60;99.90
26990;DHT22;14537;47.788;11.858;2023-05-07T07:57:24;14.70;99.90
26990;DHT22;14537;47.788;11.858;2023-05-07T07:59:49;14.80;99.90
26990;DHT22;14537;47.788;11.858;2023-05-07T08:02:16;14.90;99.90
26990;DHT22;14537;47.788;11.858;2023-05-07T08:04:42;14.90;99.90
26990;DHT22;14537;47.788;11.858;2023-05-07T08:07:09;15.00;99.90
26990;DHT22;14537;47.788;11.858;2023-05-07T08:09:35;15.10;99.90
26990;DHT22;14537;47.788;11.858;2023-05-07T08:12:01;15.10;99.90
26990;DHT22;14537;47.788;11.858;2023-05-07T08:14:27;15.10;99.90
26990;DHT22;14537;47.788;11.858;2023-05-07T08:16:54;15.20;99.90
26990;DHT22;14537;47.788;11.858;2023-05-07T08:19:20;15.30;99.90
26990;DHT22;14537;47.788;11.858;2023-05-07T08:21:46;15.40;99.90
26990;DHT22;14537;47.788;11.858;2023-05-07T08:24:13;15.40;99.90
26990;DHT22;14537;47.788;11.858;2023-05-07T08:26:39;15.40;99.90
26990;DHT22;14537;47.788;11.858;2023-05-07T08:29:05;15.50;99.90
26990;DHT22;14537;47.788;11.858;2023-05-07T08:31:31;15.50;99.90
26990;DHT22;14537;47.788;11.858;2023-05-07T08:33:57;15.50;99.90
26990;DHT22;14537;47.788;11.858;2023-05-07T08:36:24;15.60;99.90
26990;DHT22;14537;47.788;11.858;2023-05-07T08:38:49;15.70;99.90
26990;DHT22;14537;47.788;11.858;2023-05-07T08:41:16;15.70;99.90
26990;DHT22;14537;47.788;11.858;2023-05-07T08:43:41;15.80;99.90
26990;DHT22;14537;47.788;11.858;2023-05-07T08:46:09;15.90;99.90
26990;DHT22;14537;47.788;11.858;2023-05-07T08:48:36;16.00;99.90
26990;DHT22;14537;47.788;11.858;2023-05-07T08:51:02;15.90;99.90
26990;DHT22;14537;47.788;11.858;2023-05-07T08:53:28;16.00;99.90
26990;DHT22;14537;47.788;11.858;2023-05-07T08:55:54;16.10;99.90
26990;DHT22;14537;47.788;11.858;2023-05-07T08:58:20;16.20;99.90
26990;DHT22;14537;47.788;11.858;2023-05-07T09:00:46;16.20;99.90
26990;DHT22;14537;47.788;11.858;2023-05-07T09:03:12;16.30;99.90
26990;DHT22;14537;47.788;11.858;2023-05-07T09:05:39;16.30;99.90
26990;DHT22;14537;47.788;11.858;2023-05-07T09:08:06;16.30;99.90
26990;DHT22;14537;47.788;11.858;2023-05-07T09:10:33;16.40;99.90
26990;DHT22;14537;47.788;11.858;2023-05-07T09:12:59;16.40;99.90
26990;DHT22;14537;47.788;11.858;2023-05-07T09:15:26;16.50;99.90
26990;DHT22;14537;47.788;11.858;2023-05-07T09:17:53;16.60;99.90
26990;DHT22;14537;47.788;11.858;2023-05-07T09:20:18;16.70;99.90
26990;DHT22;14537;47.788;11.858;2023-05-07T09:22:44;16.80;99.90
26990;DHT22;14537;47.788;11.858;2023-05-07T09:25:10;16.90;99.90
26990;DHT22;14537;47.788;11.858;2023-05-07T09:27:36;17.00;99.90
26990;DHT22;14537;47.788;11.858;2023-05-07T09:30:05;17.00;99.90
26990;DHT22;14537;47.788;11.858;2023-05-07T09:32:34;17.00;99.90
26990;DHT22;14537;47.788;11.858;2023-05-07T09:35:00;17.10;99.90
26990;DHT22;14537;47.788;11.858;2023-05-07T09:37:27;17.00;99.90
26990;DHT22;14537;47.788;11.858;2023-05-07T09:39:52;17.10;99.90
26990;DHT22;14537;47.788;11.858;2023-05-07T09:42:25;17.20;99.90
26990;DHT22;14537;47.788;11.858;2023-05-07T09:44:54;17.30;99.90
26990;DHT22;14537;47.788;11.858;2023-05-07T09:47:20;17.50;99.90
26990;DHT22;14537;47.788;11.858;2023-05-07T09:49:48;17.50;99.90
26990;DHT22;14537;47.788;11.858;2023-05-07T09:52:16;17.60;99.90
26990;DHT22;14537;47.788;11.858;2023-05-07T09:54:43;17.70;99.90
26990;DHT22;14537;47.788;11.858;2023-05-07T09:57:11;17.80;99.90
26990;DHT22;14537;47.788;11.858;2023-05-07T09:59:37;17.80;99.90
26990;DHT22;14537;47.788;11.858;2023-05-07T10:02:04;17.90;99.90
26990;DHT22;14537;47.788;11.858;2023-05-07T10:04:31;17.90;99.90
26990;DHT22;14537;47.788;11.858;2023-05-07T10:06:57;18.00;99.90
26990;DHT22;14537;47.788;11.858;2023-05-07T10:09:26;18.00;99.90
26990;DHT22;14537;47.788;11.858;2023-05-07T10:11:52;18.10;99.90
26990;DHT22;14537;47.788;11.858;2023-05-07T10:14:20;18.10;99.90
26990;DHT22;14537;47.788;11.858;2023-05-07T10:16:47;18.20;99.90
26990;DHT22;14537;47.788;11.858;2023-05-07T10:19:14;18.20;99.90
26990;DHT22;14537;47.788;11.858;2023-05-07T10:21:44;18.20;99.90
26990;DHT22;14537;47.788;11.858;2023-05-07T10:24:21;18.30;99.90
26990;DHT22;14537;47.788;11.858;2023-05-07T10:26:49;18.30;99.90
26990;DHT22;14537;47.788;11.858;2023-05-07T10:29:25;18.50;99.90
26990;DHT22;14537;47.788;11.858;2023-05-07T10:34:43;18.70;99.90
26990;DHT22;14537;47.788;11.858;2023-05-07T10:37:10;18.70;99.90
26990;DHT22;14537;47.788;11.858;2023-05-07T10:39:37;18.90;99.90
26990;DHT22;14537;47.788;11.858;2023-05-07T10:42:13;19.00;99.90
26990;DHT22;14537;47.788;11.858;2023-05-07T10:44:39;19.00;99.90
26990;DHT22;14537;47.788;11.858;2023-05-07T10:47:11;19.00;99.90
26990;DHT22;14537;47.788;11.858;2023-05-07T10:54:38;19.30;99.90
26990;DHT22;14537;47.788;11.858;2023-05-07T10:57:33;19.40;99.90
26990;DHT22;14537;47.788;11.858;2023-05-07T11:00:01;19.50;99.90
26990;DHT22;14537;47.788;11.858;2023-05-07T11:05:25;19.50;99.90
26990;DHT22;14537;47.788;11.858;2023-05-07T11:07:54;19.50;99.90
26990;DHT22;14537;47.788;11.858;2023-05-07T11:10:21;19.60;99.90
26990;DHT22;14537;47.788;11.858;2023-05-07T11:12:47;19.80;99.90
26990;DHT22;14537;47.788;11.858;2023-05-07T11:15:14;20.00;99.90
26990;DHT22;14537;47.788;11.858;2023-05-07T11:17:56;20.20;99.90
26990;DHT22;14537;47.788;11.858;2023-05-07T11:20:44;20.50;99.90
26990;DHT22;14537;47.788;11.858;2023-05-07T11:26:10;20.70;99.90
26990;DHT22;14537;47.788;11.858;2023-05-07T11:28:41;20.90;99.90
26990;DHT22;14537;47.788;11.858;2023-05-07T11:31:07;21.00;99.90
26990;DHT22;14537;47.788;11.858;2023-05-07T11:33:33;20.90;99.90
26990;DHT22;14537;47.788;11.858;2023-05-07T11:36:00;20.80;99.90
26990;DHT22;14537;47.788;11.858;2023-05-07T11:38:26;20.90;99.90
26990;DHT22;14537;47.788;11.858;2023-05-07T11:40:59;21.00;99.90
26990;DHT22;14537;47.788;11.858;2023-05-07T11:43:29;21.10;99.90
26990;DHT22;14537;47.788;11.858;2023-05-07T11:45:55;21.40;99.90
26990;DHT22;14537;47.788;11.858;2023-05-07T11:48:29;21.50;99.90
26990;DHT22;14537;47.788;11.858;2023-05-07T11:53:34;21.70;99.90
26990;DHT22;14537;47.788;11.858;2023-05-07T11:56:00;21.90;99.90
26990;DHT22;14537;47.788;11.858;2023-05-07T11:58:26;22.00;99.90
26990;DHT22;14537;47.788;11.858;2023-05-07T12:00:55;22.10;99.90
26990;DHT22;14537;47.788;11.858;2023-05-07T12:03:21;22.00;99.90
26990;DHT22;14537;47.788;11.858;2023-05-07T12:05:47;22.00;99.90
26990;DHT22;14537;47.788;11.858;2023-05-07T12:08:20;22.00;99.90
26990;DHT22;14537;47.788;11.858;2023-05-07T12:10:48;22.00;99.90
26990;DHT22;14537;47.788;11.858;2023-05-07T12:13:23;22.00;99.90
26990;DHT22;14537;47.788;11.858;2023-05-07T12:15:52;22.10;99.90
26990;DHT22;14537;47.788;11.858;2023-05-07T12:18:18;22.10;99.90
26990;DHT22;14537;47.788;11.858;2023-05-07T12:20:44;22.00;99.90
26990;DHT22;14537;47.788;11.858;2023-05-07T12:23:10;21.80;99.90
26990;DHT22;14537;47.788;11.858;2023-05-07T12:25:40;21.70;99.90
26990;DHT22;14537;47.788;11.858;2023-05-07T12:28:17;21.60;99.90
26990;DHT22;14537;47.788;11.858;2023-05-07T12:30:43;21.80;99.90
26990;DHT22;14537;47.788;11.858;2023-05-07T12:33:10;22.10;99.90
26990;DHT22;14537;47.788;11.858;2023-05-07T12:35:42;22.30;99.90
26990;DHT22;14537;47.788;11.858;2023-05-07T12:38:13;22.60;99.90
26990;DHT22;14537;47.788;11.858;2023-05-07T12:40:47;22.90;99.90
26990;DHT22;14537;47.788;11.858;2023-05-07T12:43:28;23.00;99.90
26990;DHT22;14537;47.788;11.858;2023-05-07T12:45:56;23.30;99.90
26990;DHT22;14537;47.788;11.858;2023-05-07T12:48:23;23.30;99.90
26990;DHT22;14537;47.788;11.858;2023-05-07T12:50:53;23.30;99.90
26990;DHT22;14537;47.788;11.858;2023-05-07T12:53:21;23.50;99.90
26990;DHT22;14537;47.788;11.858;2023-05-07T12:55:49;23.50;99.90
26990;DHT22;14537;47.788;11.858;2023-05-07T12:58:21;23.60;99.90
26990;DHT22;14537;47.788;11.858;2023-05-07T13:00:49;23.40;99.90
26990;DHT22;14537;47.788;11.858;2023-05-07T13:03:41;23.10;99.70
26990;DHT22;14537;47.788;11.858;2023-05-07T13:06:13;23.00;99.90
26990;DHT22;14537;47.788;11.858;2023-05-07T13:08:40;23.10;99.90
26990;DHT22;14537;47.788;11.858;2023-05-07T13:11:09;23.30;99.80
26990;DHT22;14537;47.788;11.858;2023-05-07T13:13:37;23.50;99.90
26990;DHT22;14537;47.788;11.858;2023-05-07T13:16:03;23.50;99.10
26990;DHT22;14537;47.788;11.858;2023-05-07T13:18:30;23.30;99.90
26990;DHT22;14537;47.788;11.858;2023-05-07T13:20:56;23.10;99.60
26990;DHT22;14537;47.788;11.858;2023-05-07T13:23:22;23.00;99.90
26990;DHT22;14537;47.788;11.858;2023-05-07T13:25:48;22.90;99.90
26990;DHT22;14537;47.788;11.858;2023-05-07T13:28:14;22.80;99.90
26990;DHT22;14537;47.788;11.858;2023-05-07T13:30:43;22.80;99.90
26990;DHT22;14537;47.788;11.858;2023-05-07T13:33:09;23.00;99.90
26990;DHT22;14537;47.788;11.858;2023-05-07T13:35:35;23.00;99.90
26990;DHT22;14537;47.788;11.858;2023-05-07T13:38:01;22.90;99.90
26990;DHT22;14537;47.788;11.858;2023-05-07T13:40:26;22.90;99.90
26990;DHT22;14537;47.788;11.858;2023-05-07T13:42:52;22.80;99.90
26990;DHT22;14537;47.788;11.858;2023-05-07T13:45:18;22.70;99.90
26990;DHT22;14537;47.788;11.858;2023-05-07T13:47:44;22.70;99.90
26990;DHT22;14537;47.788;11.858;2023-05-07T13:50:11;22.60;99.90
26990;DHT22;14537;47.788;11.858;2023-05-07T13:52:40;22.40;99.90
26990;DHT22;14537;47.788;11.858;2023-05-07T13:55:06;22.30;99.90
26990;DHT22;14537;47.788;11.858;2023-05-07T13:57:32;22.20;99.90
26990;DHT22;14537;47.788;11.858;2023-05-07T13:59:58;22.10;99.90
26990;DHT22;14537;47.788;11.858;2023-05-07T14:02:23;22.00;99.90
26990;DHT22;14537;47.788;11.858;2023-05-07T14:04:49;22.00;99.90
26990;DHT22;14537;47.788;11.858;2023-05-07T14:07:14;21.90;99.90
26990;DHT22;14537;47.788;11.858;2023-05-07T14:09:40;21.80;99.90
26990;DHT22;14537;47.788;11.858;2023-05-07T14:12:06;21.70;99.90
26990;DHT22;14537;47.788;11.858;2023-05-07T14:14:31;21.60;99.90
26990;DHT22;14537;47.788;11.858;2023-05-07T14:16:57;21.50;99.90
26990;DHT22;14537;47.788;11.858;2023-05-07T14:19:23;21.50;99.90
26990;DHT22;14537;47.788;11.858;2023-05-07T14:21:48;21.50;99.90
26990;DHT22;14537;47.788;11.858;2023-05-07T14:24:14;21.40;99.90
26990;DHT22;14537;47.788;11.858;2023-05-07T14:26:40;21.30;99.90
26990;DHT22;14537;47.788;11.858;2023-05-07T14:29:05;21.20;99.90
26990;DHT22;14537;47.788;11.858;2023-05-07T14:31:31;21.10;99.90
26990;DHT22;14537;47.788;11.858;2023-05-07T14:33:58;21.10;99.90
26990;DHT22;14537;47.788;11.858;2023-05-07T14:36:24;20.90;99.90
26990;DHT22;14537;47.788;11.858;2023-05-07T14:38:52;20.80;99.90
26990;DHT22;14537;47.788;11.858;2023-05-07T14:41:22;20.70;99.90
26990;DHT22;14537;47.788;11.858;2023-05-07T14:43:48;20.60;99.90
26990;DHT22;14537;47.788;11.858;2023-05-07T14:46:18;20.50;99.90
26990;DHT22;14537;47.788;11.858;2023-05-07T14:48:47;20.40;99.90
26990;DHT22;14537;47.788;11.858;2023-05-07T14:51:13;20.30;99.90
26990;DHT22;14537;47.788;11.858;2023-05-07T14:53:40;20.20;99.90
26990;DHT22;14537;47.788;11.858;2023-05-07T14:56:06;20.10;99.90
26990;DHT22;14537;47.788;11.858;2023-05-07T14:58:32;20.00;99.90
26990;DHT22;14537;47.788;11.858;2023-05-07T15:00:58;19.90;99.90
26990;DHT22;14537;47.788;11.858;2023-05-07T15:03:24;19.90;99.90
26990;DHT22;14537;47.788;11.858;2023-05-07T15:05:51;19.80;99.90
26990;DHT22;14537;47.788;11.858;2023-05-07T15:08:17;19.70;99.90
26990;DHT22;14537;47.788;11.858;2023-05-07T15:10:43;19.60;99.90
26990;DHT22;14537;47.788;11.858;2023-05-07T15:13:12;19.50;99.90
26990;DHT22;14537;47.788;11.858;2023-05-07T15:15:38;19.50;99.90
26990;DHT22;14537;47.788;11.858;2023-05-07T15:18:03;19.40;99.90
26990;DHT22;14537;47.788;11.858;2023-05-07T15:20:29;19.30;99.90
26990;DHT22;14537;47.788;11.858;2023-05-07T15:22:55;19.30;99.90
26990;DHT22;14537;47.788;11.858;2023-05-07T15:25:21;19.20;99.90
26990;DHT22;14537;47.788;11.858;2023-05-07T15:27:47;19.10;99.90
26990;DHT22;14537;47.788;11.858;2023-05-07T15:30:13;19.10;99.90
26990;DHT22;14537;47.788;11.858;2023-05-07T15:32:40;19.00;99.90
26990;DHT22;14537;47.788;11.858;2023-05-07T15:35:06;18.90;99.90
26990;DHT22;14537;47.788;11.858;2023-05-07T15:37:32;18.70;99.90